Terminal Aerodrome Forecast
Issued by NWS Omaha/Valley, NE

Home | Current Version | Previous Version | Graphics & Text | Print | Product List | Glossary On
Versions: 1 2 3 4 5 6 7 8 9 10 11 12 13 14 15 16 17 18 19 20 21 22 23 24 25 26 27 28 29 30
000
FTUS43 KOAX 160459 AAC
TAFOFK
TAF AMD
KOFK 160459Z 1605/1624 09005KT 5SM -FZRA OVC006
      TEMPO 1608/1612 3SM -FZRA OVC004
     FM161200 05006KT 4SM -FZRAPL OVC004
     FM161600 02008KT 3SM -FZRA OVC005
     FM161900 01010KT 2SM -PL OVC005
     FM162300 34013KT 3SM -SN OVC008=

USA.gov is the U.S. government's official web portal to all federal, state and local government web resources and services.